sensor_id;sensor_type;location;lat;lon;timestamp;P1;durP1;ratioP1;P2;durP2;ratioP2
8663;SDS011;4369;47.842;13.096;2024-03-25T00:00:33;0.67;;;0.67;;
8663;SDS011;4369;47.842;13.096;2024-03-25T00:03:00;2.43;;;0.90;;
8663;SDS011;4369;47.842;13.096;2024-03-25T00:05:26;1.70;;;1.10;;
8663;SDS011;4369;47.842;13.096;2024-03-25T00:07:54;1.57;;;1.10;;
8663;SDS011;4369;47.842;13.096;2024-03-25T00:10:20;1.30;;;1.20;;
8663;SDS011;4369;47.842;13.096;2024-03-25T00:12:47;2.53;;;1.20;;
8663;SDS011;4369;47.842;13.096;2024-03-25T00:15:17;1.30;;;1.20;;
8663;SDS011;4369;47.842;13.096;2024-03-25T00:17:47;1.10;;;1.00;;
8663;SDS011;4369;47.842;13.096;2024-03-25T00:20:13;3.03;;;1.40;;
8663;SDS011;4369;47.842;13.096;2024-03-25T00:22:40;1.60;;;1.10;;
8663;SDS011;4369;47.842;13.096;2024-03-25T00:25:06;2.20;;;1.20;;
8663;SDS011;4369;47.842;13.096;2024-03-25T00:27:34;1.30;;;1.20;;
8663;SDS011;4369;47.842;13.096;2024-03-25T00:30:00;2.70;;;1.23;;
8663;SDS011;4369;47.842;13.096;2024-03-25T00:32:27;1.13;;;1.07;;
8663;SDS011;4369;47.842;13.096;2024-03-25T00:34:55;1.13;;;1.00;;
8663;SDS011;4369;47.842;13.096;2024-03-25T00:37:22;1.23;;;1.10;;
8663;SDS011;4369;47.842;13.096;2024-03-25T00:39:49;2.00;;;1.30;;
8663;SDS011;4369;47.842;13.096;2024-03-25T00:42:16;1.17;;;1.10;;
8663;SDS011;4369;47.842;13.096;2024-03-25T00:44:42;3.00;;;1.30;;
8663;SDS011;4369;47.842;13.096;2024-03-25T00:47:09;2.07;;;1.27;;
8663;SDS011;4369;47.842;13.096;2024-03-25T00:49:35;1.93;;;1.43;;
8663;SDS011;4369;47.842;13.096;2024-03-25T00:52:03;4.63;;;1.33;;
8663;SDS011;4369;47.842;13.096;2024-03-25T00:54:29;1.43;;;1.30;;
8663;SDS011;4369;47.842;13.096;2024-03-25T00:56:56;1.70;;;1.40;;
8663;SDS011;4369;47.842;13.096;2024-03-25T00:59:22;1.40;;;1.37;;
8663;SDS011;4369;47.842;13.096;2024-03-25T01:01:49;1.50;;;1.37;;
8663;SDS011;4369;47.842;13.096;2024-03-25T01:04:15;3.83;;;1.60;;
8663;SDS011;4369;47.842;13.096;2024-03-25T01:06:43;3.00;;;1.57;;
8663;SDS011;4369;47.842;13.096;2024-03-25T01:09:10;1.40;;;1.30;;
8663;SDS011;4369;47.842;13.096;2024-03-25T01:11:38;2.33;;;1.30;;
8663;SDS011;4369;47.842;13.096;2024-03-25T01:14:04;1.93;;;1.20;;
8663;SDS011;4369;47.842;13.096;2024-03-25T01:16:30;1.00;;;1.00;;
8663;SDS011;4369;47.842;13.096;2024-03-25T01:18:57;1.00;;;1.00;;
8663;SDS011;4369;47.842;13.096;2024-03-25T01:21:24;2.43;;;1.13;;
8663;SDS011;4369;47.842;13.096;2024-03-25T01:23:50;1.10;;;1.10;;
8663;SDS011;4369;47.842;13.096;2024-03-25T01:26:19;1.80;;;1.27;;
8663;SDS011;4369;47.842;13.096;2024-03-25T01:28:45;1.23;;;1.10;;
8663;SDS011;4369;47.842;13.096;2024-03-25T01:31:12;2.60;;;1.30;;
8663;SDS011;4369;47.842;13.096;2024-03-25T01:33:39;1.83;;;1.30;;
8663;SDS011;4369;47.842;13.096;2024-03-25T01:36:06;2.77;;;1.33;;
8663;SDS011;4369;47.842;13.096;2024-03-25T01:38:32;2.13;;;1.23;;
8663;SDS011;4369;47.842;13.096;2024-03-25T01:41:06;1.40;;;1.30;;
8663;SDS011;4369;47.842;13.096;2024-03-25T01:43:34;2.27;;;1.33;;
8663;SDS011;4369;47.842;13.096;2024-03-25T01:46:01;1.40;;;1.30;;
8663;SDS011;4369;47.842;13.096;2024-03-25T01:48:27;0.87;;;0.80;;
8663;SDS011;4369;47.842;13.096;2024-03-25T01:50:54;2.63;;;1.30;;
8663;SDS011;4369;47.842;13.096;2024-03-25T01:53:21;1.30;;;1.20;;
8663;SDS011;4369;47.842;13.096;2024-03-25T01:55:50;1.87;;;1.50;;
8663;SDS011;4369;47.842;13.096;2024-03-25T01:58:19;1.60;;;1.50;;
8663;SDS011;4369;47.842;13.096;2024-03-25T02:00:47;1.30;;;1.20;;
8663;SDS011;4369;47.842;13.096;2024-03-25T02:03:14;1.53;;;1.30;;
8663;SDS011;4369;47.842;13.096;2024-03-25T02:05:41;1.93;;;1.67;;
8663;SDS011;4369;47.842;13.096;2024-03-25T02:08:09;1.60;;;1.30;;
8663;SDS011;4369;47.842;13.096;2024-03-25T02:10:36;2.07;;;1.43;;
8663;SDS011;4369;47.842;13.096;2024-03-25T02:13:03;3.20;;;1.43;;
8663;SDS011;4369;47.842;13.096;2024-03-25T02:15:32;1.50;;;1.40;;
8663;SDS011;4369;47.842;13.096;2024-03-25T02:18:00;2.60;;;1.37;;
8663;SDS011;4369;47.842;13.096;2024-03-25T02:20:27;1.63;;;1.53;;
8663;SDS011;4369;47.842;13.096;2024-03-25T02:22:53;1.10;;;1.10;;
8663;SDS011;4369;47.842;13.096;2024-03-25T02:25:21;1.53;;;1.43;;
8663;SDS011;4369;47.842;13.096;2024-03-25T02:27:49;1.80;;;1.60;;
8663;SDS011;4369;47.842;13.096;2024-03-25T02:30:16;1.53;;;1.40;;
8663;SDS011;4369;47.842;13.096;2024-03-25T02:32:42;2.60;;;1.60;;
8663;SDS011;4369;47.842;13.096;2024-03-25T02:35:09;1.90;;;1.40;;
8663;SDS011;4369;47.842;13.096;2024-03-25T02:37:39;1.50;;;1.40;;
8663;SDS011;4369;47.842;13.096;2024-03-25T02:40:08;1.67;;;1.57;;
8663;SDS011;4369;47.842;13.096;2024-03-25T02:42:35;1.43;;;1.33;;
8663;SDS011;4369;47.842;13.096;2024-03-25T02:45:07;2.20;;;1.40;;
8663;SDS011;4369;47.842;13.096;2024-03-25T02:47:33;1.30;;;1.23;;
8663;SDS011;4369;47.842;13.096;2024-03-25T02:50:00;1.90;;;1.43;;
8663;SDS011;4369;47.842;13.096;2024-03-25T02:52:26;2.13;;;1.30;;
8663;SDS011;4369;47.842;13.096;2024-03-25T02:54:53;1.47;;;1.37;;
8663;SDS011;4369;47.842;13.096;2024-03-25T02:57:19;2.30;;;1.43;;
8663;SDS011;4369;47.842;13.096;2024-03-25T02:59:46;2.10;;;1.47;;
8663;SDS011;4369;47.842;13.096;2024-03-25T03:02:13;4.23;;;1.63;;
8663;SDS011;4369;47.842;13.096;2024-03-25T03:04:40;1.87;;;1.70;;
8663;SDS011;4369;47.842;13.096;2024-03-25T03:07:06;1.47;;;1.37;;
8663;SDS011;4369;47.842;13.096;2024-03-25T03:09:33;2.97;;;1.57;;
8663;SDS011;4369;47.842;13.096;2024-03-25T03:11:59;2.40;;;1.43;;
8663;SDS011;4369;47.842;13.096;2024-03-25T03:14:26;2.13;;;2.03;;
8663;SDS011;4369;47.842;13.096;2024-03-25T03:16:52;2.87;;;1.60;;
8663;SDS011;4369;47.842;13.096;2024-03-25T03:19:24;1.90;;;1.50;;
8663;SDS011;4369;47.842;13.096;2024-03-25T03:21:50;1.57;;;1.47;;
8663;SDS011;4369;47.842;13.096;2024-03-25T03:24:17;3.13;;;1.80;;
8663;SDS011;4369;47.842;13.096;2024-03-25T03:26:43;1.60;;;1.50;;
8663;SDS011;4369;47.842;13.096;2024-03-25T03:29:10;1.97;;;1.47;;
8663;SDS011;4369;47.842;13.096;2024-03-25T03:31:37;1.57;;;1.47;;
8663;SDS011;4369;47.842;13.096;2024-03-25T03:34:03;2.57;;;1.63;;
8663;SDS011;4369;47.842;13.096;2024-03-25T03:36:31;1.47;;;1.37;;
8663;SDS011;4369;47.842;13.096;2024-03-25T03:38:58;3.40;;;1.60;;
8663;SDS011;4369;47.842;13.096;2024-03-25T03:41:24;1.57;;;1.47;;
8663;SDS011;4369;47.842;13.096;2024-03-25T03:43:51;1.53;;;1.40;;
8663;SDS011;4369;47.842;13.096;2024-03-25T03:46:17;5.10;;;1.80;;
8663;SDS011;4369;47.842;13.096;2024-03-25T03:48:44;2.03;;;1.90;;
8663;SDS011;4369;47.842;13.096;2024-03-25T03:51:09;3.00;;;2.13;;
8663;SDS011;4369;47.842;13.096;2024-03-25T03:53:38;1.57;;;1.47;;
8663;SDS011;4369;47.842;13.096;2024-03-25T03:56:04;1.60;;;1.50;;
8663;SDS011;4369;47.842;13.096;2024-03-25T03:58:32;2.27;;;1.67;;
8663;SDS011;4369;47.842;13.096;2024-03-25T04:00:58;2.10;;;1.90;;
8663;SDS011;4369;47.842;13.096;2024-03-25T04:03:25;2.43;;;1.50;;
8663;SDS011;4369;47.842;13.096;2024-03-25T04:05:51;2.37;;;1.40;;
8663;SDS011;4369;47.842;13.096;2024-03-25T04:08:18;1.73;;;1.63;;
8663;SDS011;4369;47.842;13.096;2024-03-25T04:10:45;2.17;;;1.63;;
8663;SDS011;4369;47.842;13.096;2024-03-25T04:13:12;2.40;;;1.70;;
8663;SDS011;4369;47.842;13.096;2024-03-25T04:15:39;2.20;;;1.80;;
8663;SDS011;4369;47.842;13.096;2024-03-25T04:18:07;2.00;;;1.80;;
8663;SDS011;4369;47.842;13.096;2024-03-25T04:20:36;1.80;;;1.70;;
8663;SDS011;4369;47.842;13.096;2024-03-25T04:23:03;1.83;;;1.73;;
8663;SDS011;4369;47.842;13.096;2024-03-25T04:25:32;1.70;;;1.60;;
8663;SDS011;4369;47.842;13.096;2024-03-25T04:28:01;3.67;;;1.90;;
8663;SDS011;4369;47.842;13.096;2024-03-25T04:30:27;1.87;;;1.77;;
8663;SDS011;4369;47.842;13.096;2024-03-25T04:32:54;2.10;;;1.90;;
8663;SDS011;4369;47.842;13.096;2024-03-25T04:35:20;2.07;;;1.87;;
8663;SDS011;4369;47.842;13.096;2024-03-25T04:37:47;2.70;;;1.97;;
8663;SDS011;4369;47.842;13.096;2024-03-25T04:40:13;1.90;;;1.77;;
8663;SDS011;4369;47.842;13.096;2024-03-25T04:42:39;2.17;;;1.87;;
8663;SDS011;4369;47.842;13.096;2024-03-25T04:45:07;2.13;;;1.93;;
8663;SDS011;4369;47.842;13.096;2024-03-25T04:47:34;5.00;;;2.00;;
8663;SDS011;4369;47.842;13.096;2024-03-25T04:50:00;2.50;;;2.00;;
8663;SDS011;4369;47.842;13.096;2024-03-25T04:52:26;2.67;;;2.23;;
8663;SDS011;4369;47.842;13.096;2024-03-25T04:54:52;2.27;;;2.07;;
8663;SDS011;4369;47.842;13.096;2024-03-25T04:57:18;2.83;;;2.30;;
8663;SDS011;4369;47.842;13.096;2024-03-25T04:59:44;2.03;;;1.90;;
8663;SDS011;4369;47.842;13.096;2024-03-25T05:02:11;3.63;;;2.30;;
8663;SDS011;4369;47.842;13.096;2024-03-25T05:04:37;2.67;;;2.20;;
8663;SDS011;4369;47.842;13.096;2024-03-25T05:07:03;1.90;;;1.70;;
8663;SDS011;4369;47.842;13.096;2024-03-25T05:09:29;2.70;;;2.23;;
8663;SDS011;4369;47.842;13.096;2024-03-25T05:11:55;3.33;;;2.20;;
8663;SDS011;4369;47.842;13.096;2024-03-25T05:14:21;4.07;;;2.80;;
8663;SDS011;4369;47.842;13.096;2024-03-25T05:16:47;3.17;;;2.23;;
8663;SDS011;4369;47.842;13.096;2024-03-25T05:19:15;2.23;;;2.03;;
8663;SDS011;4369;47.842;13.096;2024-03-25T05:21:41;2.27;;;2.07;;
8663;SDS011;4369;47.842;13.096;2024-03-25T05:24:07;2.10;;;2.00;;
8663;SDS011;4369;47.842;13.096;2024-03-25T05:26:33;2.40;;;2.20;;
8663;SDS011;4369;47.842;13.096;2024-03-25T05:28:59;3.00;;;2.23;;
8663;SDS011;4369;47.842;13.096;2024-03-25T05:31:25;2.73;;;2.17;;
8663;SDS011;4369;47.842;13.096;2024-03-25T05:33:51;1.90;;;1.80;;
8663;SDS011;4369;47.842;13.096;2024-03-25T05:36:18;3.17;;;2.13;;
8663;SDS011;4369;47.842;13.096;2024-03-25T05:38:45;2.50;;;2.20;;
8663;SDS011;4369;47.842;13.096;2024-03-25T05:41:11;3.73;;;2.13;;
8663;SDS011;4369;47.842;13.096;2024-03-25T05:43:37;2.27;;;2.07;;
8663;SDS011;4369;47.842;13.096;2024-03-25T05:46:03;2.40;;;2.20;;
8663;SDS011;4369;47.842;13.096;2024-03-25T05:48:29;2.10;;;1.90;;
8663;SDS011;4369;47.842;13.096;2024-03-25T05:50:59;2.60;;;2.17;;
8663;SDS011;4369;47.842;13.096;2024-03-25T05:53:27;2.27;;;2.07;;
8663;SDS011;4369;47.842;13.096;2024-03-25T05:55:54;2.93;;;1.90;;
8663;SDS011;4369;47.842;13.096;2024-03-25T05:58:20;3.90;;;2.00;;
8663;SDS011;4369;47.842;13.096;2024-03-25T06:00:46;2.10;;;2.00;;
8663;SDS011;4369;47.842;13.096;2024-03-25T06:03:13;2.23;;;2.03;;
8663;SDS011;4369;47.842;13.096;2024-03-25T06:05:39;2.17;;;1.93;;
8663;SDS011;4369;47.842;13.096;2024-03-25T06:08:06;2.00;;;1.83;;
8663;SDS011;4369;47.842;13.096;2024-03-25T06:10:37;2.73;;;2.10;;
8663;SDS011;4369;47.842;13.096;2024-03-25T06:13:03;3.73;;;1.87;;
8663;SDS011;4369;47.842;13.096;2024-03-25T06:15:29;2.47;;;2.07;;
8663;SDS011;4369;47.842;13.096;2024-03-25T06:17:55;4.30;;;1.90;;
8663;SDS011;4369;47.842;13.096;2024-03-25T06:20:21;5.43;;;2.40;;
8663;SDS011;4369;47.842;13.096;2024-03-25T06:22:47;2.37;;;2.17;;
8663;SDS011;4369;47.842;13.096;2024-03-25T06:25:13;6.17;;;4.30;;
8663;SDS011;4369;47.842;13.096;2024-03-25T06:27:41;5.03;;;2.90;;
8663;SDS011;4369;47.842;13.096;2024-03-25T06:30:08;4.00;;;2.37;;
8663;SDS011;4369;47.842;13.096;2024-03-25T06:32:53;2.93;;;2.27;;
8663;SDS011;4369;47.842;13.096;2024-03-25T06:35:37;3.47;;;2.30;;
8663;SDS011;4369;47.842;13.096;2024-03-25T06:38:03;2.23;;;1.60;;
8663;SDS011;4369;47.842;13.096;2024-03-25T06:40:30;3.30;;;2.27;;
8663;SDS011;4369;47.842;13.096;2024-03-25T06:42:57;1.87;;;1.77;;
8663;SDS011;4369;47.842;13.096;2024-03-25T06:45:23;3.03;;;2.30;;
8663;SDS011;4369;47.842;13.096;2024-03-25T06:47:49;2.80;;;1.83;;
8663;SDS011;4369;47.842;13.096;2024-03-25T06:50:15;2.43;;;2.03;;
8663;SDS011;4369;47.842;13.096;2024-03-25T06:52:41;5.00;;;2.50;;
8663;SDS011;4369;47.842;13.096;2024-03-25T06:55:07;4.73;;;2.17;;
8663;SDS011;4369;47.842;13.096;2024-03-25T06:57:34;2.10;;;2.00;;
8663;SDS011;4369;47.842;13.096;2024-03-25T07:00:01;1.73;;;1.63;;
8663;SDS011;4369;47.842;13.096;2024-03-25T07:02:27;3.40;;;2.50;;
8663;SDS011;4369;47.842;13.096;2024-03-25T07:04:54;3.63;;;2.17;;
8663;SDS011;4369;47.842;13.096;2024-03-25T07:07:20;2.10;;;1.90;;
8663;SDS011;4369;47.842;13.096;2024-03-25T07:09:46;2.20;;;1.90;;
8663;SDS011;4369;47.842;13.096;2024-03-25T07:12:12;2.27;;;2.07;;
8663;SDS011;4369;47.842;13.096;2024-03-25T07:14:38;2.27;;;2.07;;
8663;SDS011;4369;47.842;13.096;2024-03-25T07:17:05;2.70;;;2.50;;
8663;SDS011;4369;47.842;13.096;2024-03-25T07:19:31;3.47;;;2.23;;
8663;SDS011;4369;47.842;13.096;2024-03-25T07:21:57;4.47;;;3.13;;
8663;SDS011;4369;47.842;13.096;2024-03-25T07:24:23;8.83;;;4.27;;
8663;SDS011;4369;47.842;13.096;2024-03-25T07:26:49;7.43;;;4.70;;
8663;SDS011;4369;47.842;13.096;2024-03-25T07:29:15;5.50;;;3.30;;
8663;SDS011;4369;47.842;13.096;2024-03-25T07:31:41;3.37;;;2.90;;
8663;SDS011;4369;47.842;13.096;2024-03-25T07:34:09;4.13;;;2.83;;
8663;SDS011;4369;47.842;13.096;2024-03-25T07:36:35;3.87;;;2.60;;
8663;SDS011;4369;47.842;13.096;2024-03-25T07:39:01;3.93;;;2.70;;
8663;SDS011;4369;47.842;13.096;2024-03-25T07:41:27;2.67;;;2.17;;
8663;SDS011;4369;47.842;13.096;2024-03-25T07:43:53;3.83;;;1.97;;
8663;SDS011;4369;47.842;13.096;2024-03-25T07:46:19;2.77;;;1.90;;
8663;SDS011;4369;47.842;13.096;2024-03-25T07:48:45;3.40;;;1.97;;
8663;SDS011;4369;47.842;13.096;2024-03-25T07:51:13;4.27;;;2.17;;
8663;SDS011;4369;47.842;13.096;2024-03-25T07:53:39;1.80;;;1.70;;
8663;SDS011;4369;47.842;13.096;2024-03-25T07:56:05;2.20;;;1.53;;
8663;SDS011;4369;47.842;13.096;2024-03-25T07:58:31;2.93;;;1.90;;
8663;SDS011;4369;47.842;13.096;2024-03-25T08:00:57;2.43;;;2.00;;
8663;SDS011;4369;47.842;13.096;2024-03-25T08:03:23;3.33;;;1.93;;
8663;SDS011;4369;47.842;13.096;2024-03-25T08:05:49;2.53;;;2.03;;
8663;SDS011;4369;47.842;13.096;2024-03-25T08:08:16;2.07;;;1.83;;
8663;SDS011;4369;47.842;13.096;2024-03-25T08:10:42;2.63;;;1.90;;
8663;SDS011;4369;47.842;13.096;2024-03-25T08:13:08;2.33;;;1.70;;
8663;SDS011;4369;47.842;13.096;2024-03-25T08:15:35;3.13;;;2.37;;
8663;SDS011;4369;47.842;13.096;2024-03-25T08:18:01;3.63;;;1.63;;
8663;SDS011;4369;47.842;13.096;2024-03-25T08:20:26;2.13;;;1.70;;
8663;SDS011;4369;47.842;13.096;2024-03-25T08:22:52;3.07;;;2.10;;
8663;SDS011;4369;47.842;13.096;2024-03-25T08:25:20;1.80;;;1.70;;
8663;SDS011;4369;47.842;13.096;2024-03-25T08:27:46;3.80;;;2.10;;
8663;SDS011;4369;47.842;13.096;2024-03-25T08:30:12;4.70;;;2.03;;
8663;SDS011;4369;47.842;13.096;2024-03-25T08:32:38;3.77;;;1.90;;
8663;SDS011;4369;47.842;13.096;2024-03-25T08:35:04;2.43;;;2.00;;
8663;SDS011;4369;47.842;13.096;2024-03-25T08:37:31;3.30;;;2.00;;
8663;SDS011;4369;47.842;13.096;2024-03-25T08:39:57;2.80;;;2.13;;
8663;SDS011;4369;47.842;13.096;2024-03-25T08:42:24;2.10;;;1.87;;
8663;SDS011;4369;47.842;13.096;2024-03-25T08:44:50;2.37;;;2.17;;
8663;SDS011;4369;47.842;13.096;2024-03-25T08:47:16;2.57;;;2.17;;
8663;SDS011;4369;47.842;13.096;2024-03-25T08:49:42;2.77;;;1.80;;
8663;SDS011;4369;47.842;13.096;2024-03-25T08:52:08;3.50;;;1.60;;
8663;SDS011;4369;47.842;13.096;2024-03-25T08:54:34;2.97;;;1.80;;
8663;SDS011;4369;47.842;13.096;2024-03-25T08:57:00;2.73;;;2.10;;
8663;SDS011;4369;47.842;13.096;2024-03-25T08:59:27;1.70;;;1.60;;
8663;SDS011;4369;47.842;13.096;2024-03-25T09:01:53;3.23;;;2.07;;
8663;SDS011;4369;47.842;13.096;2024-03-25T09:04:19;2.23;;;1.87;;
8663;SDS011;4369;47.842;13.096;2024-03-25T09:06:45;2.80;;;1.73;;
8663;SDS011;4369;47.842;13.096;2024-03-25T09:09:11;4.10;;;1.87;;
8663;SDS011;4369;47.842;13.096;2024-03-25T09:11:55;2.90;;;2.13;;
8663;SDS011;4369;47.842;13.096;2024-03-25T09:14:21;3.10;;;2.10;;
8663;SDS011;4369;47.842;13.096;2024-03-25T09:16:49;2.60;;;2.33;;
8663;SDS011;4369;47.842;13.096;2024-03-25T09:19:15;4.10;;;2.00;;
8663;SDS011;4369;47.842;13.096;2024-03-25T09:21:41;3.37;;;1.93;;
8663;SDS011;4369;47.842;13.096;2024-03-25T09:24:07;2.37;;;2.10;;
8663;SDS011;4369;47.842;13.096;2024-03-25T09:26:33;2.20;;;2.00;;
8663;SDS011;4369;47.842;13.096;2024-03-25T09:28:59;2.90;;;2.23;;
8663;SDS011;4369;47.842;13.096;2024-03-25T09:31:25;3.33;;;1.93;;
8663;SDS011;4369;47.842;13.096;2024-03-25T09:33:53;3.17;;;2.07;;
8663;SDS011;4369;47.842;13.096;2024-03-25T09:36:19;2.67;;;2.10;;
8663;SDS011;4369;47.842;13.096;2024-03-25T09:38:45;3.50;;;2.23;;
8663;SDS011;4369;47.842;13.096;2024-03-25T09:41:11;2.63;;;2.13;;
8663;SDS011;4369;47.842;13.096;2024-03-25T09:43:43;2.57;;;2.23;;
8663;SDS011;4369;47.842;13.096;2024-03-25T09:46:10;4.50;;;2.00;;
8663;SDS011;4369;47.842;13.096;2024-03-25T09:48:36;4.63;;;2.20;;
8663;SDS011;4369;47.842;13.096;2024-03-25T09:51:04;3.60;;;2.30;;
8663;SDS011;4369;47.842;13.096;2024-03-25T09:53:30;2.77;;;1.87;;
8663;SDS011;4369;47.842;13.096;2024-03-25T09:55:56;4.33;;;1.97;;
8663;SDS011;4369;47.842;13.096;2024-03-25T09:58:23;4.33;;;2.17;;
8663;SDS011;4369;47.842;13.096;2024-03-25T10:00:50;2.27;;;1.80;;
8663;SDS011;4369;47.842;13.096;2024-03-25T10:03:17;2.73;;;2.07;;
8663;SDS011;4369;47.842;13.096;2024-03-25T10:05:43;3.53;;;1.70;;
8663;SDS011;4369;47.842;13.096;2024-03-25T10:08:11;2.87;;;1.73;;
8663;SDS011;4369;47.842;13.096;2024-03-25T10:10:37;3.50;;;1.87;;
8663;SDS011;4369;47.842;13.096;2024-03-25T10:13:03;2.50;;;1.80;;
8663;SDS011;4369;47.842;13.096;2024-03-25T10:15:29;2.00;;;1.60;;
8663;SDS011;4369;47.842;13.096;2024-03-25T10:17:55;3.97;;;1.97;;
8663;SDS011;4369;47.842;13.096;2024-03-25T10:20:21;1.50;;;1.40;;
8663;SDS011;4369;47.842;13.096;2024-03-25T10:22:47;1.80;;;1.50;;
8663;SDS011;4369;47.842;13.096;2024-03-25T10:25:25;1.77;;;1.60;;
8663;SDS011;4369;47.842;13.096;2024-03-25T10:27:53;1.77;;;1.67;;
8663;SDS011;4369;47.842;13.096;2024-03-25T10:30:19;3.20;;;1.53;;
8663;SDS011;4369;47.842;13.096;2024-03-25T10:32:46;2.27;;;1.80;;
8663;SDS011;4369;47.842;13.096;2024-03-25T10:35:22;2.27;;;1.80;;
8663;SDS011;4369;47.842;13.096;2024-03-25T10:37:51;2.37;;;1.87;;
8663;SDS011;4369;47.842;13.096;2024-03-25T10:40:20;1.87;;;1.53;;
8663;SDS011;4369;47.842;13.096;2024-03-25T10:42:52;3.27;;;1.77;;
8663;SDS011;4369;47.842;13.096;2024-03-25T10:45:25;2.17;;;1.50;;
8663;SDS011;4369;47.842;13.096;2024-03-25T10:47:52;2.37;;;1.40;;
8663;SDS011;4369;47.842;13.096;2024-03-25T10:50:19;3.07;;;1.30;;
8663;SDS011;4369;47.842;13.096;2024-03-25T10:52:49;3.60;;;1.60;;
8663;SDS011;4369;47.842;13.096;2024-03-25T10:55:16;1.50;;;1.30;;
8663;SDS011;4369;47.842;13.096;2024-03-25T10:57:44;1.57;;;0.90;;
8663;SDS011;4369;47.842;13.096;2024-03-25T11:00:12;1.90;;;1.60;;
8663;SDS011;4369;47.842;13.096;2024-03-25T11:02:40;1.77;;;1.20;;
8663;SDS011;4369;47.842;13.096;2024-03-25T11:05:07;1.63;;;1.53;;
8663;SDS011;4369;47.842;13.096;2024-03-25T11:07:34;2.60;;;1.83;;
8663;SDS011;4369;47.842;13.096;2024-03-25T11:10:03;2.73;;;1.50;;
8663;SDS011;4369;47.842;13.096;2024-03-25T11:12:37;1.70;;;1.33;;
8663;SDS011;4369;47.842;13.096;2024-03-25T11:15:05;1.63;;;1.20;;
8663;SDS011;4369;47.842;13.096;2024-03-25T11:17:34;1.53;;;1.37;;
8663;SDS011;4369;47.842;13.096;2024-03-25T11:20:07;2.03;;;1.50;;
8663;SDS011;4369;47.842;13.096;2024-03-25T11:22:36;1.73;;;1.40;;
8663;SDS011;4369;47.842;13.096;2024-03-25T11:25:13;2.80;;;1.50;;
8663;SDS011;4369;47.842;13.096;2024-03-25T11:27:39;2.33;;;1.50;;
8663;SDS011;4369;47.842;13.096;2024-03-25T11:30:09;1.70;;;1.60;;
8663;SDS011;4369;47.842;13.096;2024-03-25T11:32:44;1.60;;;1.50;;
8663;SDS011;4369;47.842;13.096;2024-03-25T11:35:11;2.10;;;1.53;;
8663;SDS011;4369;47.842;13.096;2024-03-25T11:37:41;1.30;;;1.20;;
8663;SDS011;4369;47.842;13.096;2024-03-25T11:40:07;3.23;;;1.43;;
8663;SDS011;4369;47.842;13.096;2024-03-25T11:42:34;1.40;;;1.30;;
8663;SDS011;4369;47.842;13.096;2024-03-25T11:45:03;1.90;;;1.50;;
8663;SDS011;4369;47.842;13.096;2024-03-25T11:47:30;1.57;;;1.37;;
8663;SDS011;4369;47.842;13.096;2024-03-25T11:49:57;1.30;;;1.20;;
8663;SDS011;4369;47.842;13.096;2024-03-25T11:52:23;1.40;;;1.30;;
8663;SDS011;4369;47.842;13.096;2024-03-25T11:54:54;2.17;;;1.40;;
8663;SDS011;4369;47.842;13.096;2024-03-25T11:57:27;1.47;;;1.10;;
8663;SDS011;4369;47.842;13.096;2024-03-25T11:59:54;2.00;;;1.50;;
8663;SDS011;4369;47.842;13.096;2024-03-25T12:02:21;2.20;;;1.37;;
8663;SDS011;4369;47.842;13.096;2024-03-25T12:04:47;1.50;;;1.40;;
8663;SDS011;4369;47.842;13.096;2024-03-25T12:07:15;1.40;;;1.30;;
8663;SDS011;4369;47.842;13.096;2024-03-25T12:09:41;1.97;;;1.07;;
8663;SDS011;4369;47.842;13.096;2024-03-25T12:12:25;1.23;;;1.13;;
8663;SDS011;4369;47.842;13.096;2024-03-25T12:14:52;1.27;;;1.17;;
8663;SDS011;4369;47.842;13.096;2024-03-25T12:17:18;1.23;;;1.10;;
8663;SDS011;4369;47.842;13.096;2024-03-25T12:19:45;1.50;;;1.40;;
8663;SDS011;4369;47.842;13.096;2024-03-25T12:22:25;1.53;;;1.20;;
8663;SDS011;4369;47.842;13.096;2024-03-25T12:24:51;1.70;;;1.00;;
8663;SDS011;4369;47.842;13.096;2024-03-25T12:27:17;1.80;;;1.57;;
8663;SDS011;4369;47.842;13.096;2024-03-25T12:29:43;2.03;;;1.07;;
8663;SDS011;4369;47.842;13.096;2024-03-25T12:32:10;1.83;;;0.90;;
8663;SDS011;4369;47.842;13.096;2024-03-25T12:34:36;1.77;;;1.20;;
8663;SDS011;4369;47.842;13.096;2024-03-25T12:37:02;0.90;;;0.90;;
8663;SDS011;4369;47.842;13.096;2024-03-25T12:39:30;1.37;;;1.00;;
8663;SDS011;4369;47.842;13.096;2024-03-25T12:41:56;1.37;;;1.10;;
8663;SDS011;4369;47.842;13.096;2024-03-25T12:44:22;2.13;;;1.93;;
8663;SDS011;4369;47.842;13.096;2024-03-25T12:46:48;1.35;;;1.25;;
8663;SDS011;4369;47.842;13.096;2024-03-25T12:49:15;1.20;;;1.10;;
8663;SDS011;4369;47.842;13.096;2024-03-25T12:51:42;1.92;;;1.00;;
8663;SDS011;4369;47.842;13.096;2024-03-25T12:54:08;1.27;;;1.20;;
8663;SDS011;4369;47.842;13.096;2024-03-25T12:56:35;1.08;;;1.08;;
8663;SDS011;4369;47.842;13.096;2024-03-25T12:59:01;0.88;;;0.70;;
8663;SDS011;4369;47.842;13.096;2024-03-25T13:01:27;1.58;;;1.10;;
8663;SDS011;4369;47.842;13.096;2024-03-25T13:03:53;0.80;;;0.80;;
8663;SDS011;4369;47.842;13.096;2024-03-25T13:06:19;1.38;;;1.00;;
8663;SDS011;4369;47.842;13.096;2024-03-25T13:08:45;1.80;;;0.90;;
8663;SDS011;4369;47.842;13.096;2024-03-25T13:11:11;1.08;;;0.98;;
8663;SDS011;4369;47.842;13.096;2024-03-25T13:13:38;1.95;;;0.93;;
8663;SDS011;4369;47.842;13.096;2024-03-25T13:16:04;1.08;;;0.90;;
8663;SDS011;4369;47.842;13.096;2024-03-25T13:18:31;0.80;;;0.80;;
8663;SDS011;4369;47.842;13.096;2024-03-25T13:20:57;1.33;;;0.90;;
8663;SDS011;4369;47.842;13.096;2024-03-25T13:23:23;0.90;;;0.90;;
8663;SDS011;4369;47.842;13.096;2024-03-25T13:25:49;1.35;;;1.00;;
8663;SDS011;4369;47.842;13.096;2024-03-25T13:28:15;2.92;;;1.30;;
8663;SDS011;4369;47.842;13.096;2024-03-25T13:30:43;1.30;;;1.13;;
8663;SDS011;4369;47.842;13.096;2024-03-25T13:33:09;1.38;;;1.13;;
8663;SDS011;4369;47.842;13.096;2024-03-25T13:35:35;1.90;;;1.10;;
8663;SDS011;4369;47.842;13.096;2024-03-25T13:38:01;1.40;;;1.30;;
8663;SDS011;4369;47.842;13.096;2024-03-25T13:40:27;2.13;;;1.20;;
8663;SDS011;4369;47.842;13.096;2024-03-25T13:42:52;1.38;;;0.95;;
8663;SDS011;4369;47.842;13.096;2024-03-25T13:45:18;1.17;;;1.08;;
8663;SDS011;4369;47.842;13.096;2024-03-25T13:47:46;1.73;;;1.20;;
8663;SDS011;4369;47.842;13.096;2024-03-25T13:50:12;1.48;;;1.38;;
8663;SDS011;4369;47.842;13.096;2024-03-25T13:52:38;1.77;;;1.67;;
8663;SDS011;4369;47.842;13.096;2024-03-25T13:55:04;1.15;;;1.05;;
8663;SDS011;4369;47.842;13.096;2024-03-25T13:57:30;2.85;;;1.50;;
8663;SDS011;4369;47.842;13.096;2024-03-25T13:59:56;1.65;;;1.10;;
8663;SDS011;4369;47.842;13.096;2024-03-25T14:02:23;1.08;;;1.02;;
8663;SDS011;4369;47.842;13.096;2024-03-25T14:04:50;1.00;;;1.00;;
8663;SDS011;4369;47.842;13.096;2024-03-25T14:07:16;1.00;;;1.00;;
8663;SDS011;4369;47.842;13.096;2024-03-25T14:09:42;1.05;;;1.00;;
8663;SDS011;4369;47.842;13.096;2024-03-25T14:12:08;1.15;;;0.98;;
8663;SDS011;4369;47.842;13.096;2024-03-25T14:14:34;0.93;;;0.93;;
8663;SDS011;4369;47.842;13.096;2024-03-25T14:17:00;1.30;;;0.70;;
8663;SDS011;4369;47.842;13.096;2024-03-25T14:19:26;1.08;;;1.00;;
8663;SDS011;4369;47.842;13.096;2024-03-25T14:21:54;1.23;;;1.00;;
8663;SDS011;4369;47.842;13.096;2024-03-25T14:24:20;1.20;;;0.98;;
8663;SDS011;4369;47.842;13.096;2024-03-25T14:26:46;1.73;;;1.10;;
8663;SDS011;4369;47.842;13.096;2024-03-25T14:29:12;1.50;;;1.05;;
8663;SDS011;4369;47.842;13.096;2024-03-25T14:31:38;1.50;;;1.20;;
8663;SDS011;4369;47.842;13.096;2024-03-25T14:34:04;1.52;;;1.10;;
8663;SDS011;4369;47.842;13.096;2024-03-25T14:36:30;1.02;;;1.02;;
8663;SDS011;4369;47.842;13.096;2024-03-25T14:38:57;1.10;;;0.90;;
8663;SDS011;4369;47.842;13.096;2024-03-25T14:41:23;0.90;;;0.90;;
8663;SDS011;4369;47.842;13.096;2024-03-25T14:43:49;1.02;;;0.95;;
8663;SDS011;4369;47.842;13.096;2024-03-25T14:46:15;1.15;;;1.10;;
8663;SDS011;4369;47.842;13.096;2024-03-25T14:48:41;1.23;;;1.10;;
8663;SDS011;4369;47.842;13.096;2024-03-25T14:51:07;1.52;;;1.10;;
8663;SDS011;4369;47.842;13.096;2024-03-25T14:53:33;1.33;;;1.00;;
8663;SDS011;4369;47.842;13.096;2024-03-25T14:56:01;1.33;;;1.23;;
8663;SDS011;4369;47.842;13.096;2024-03-25T14:58:27;2.60;;;1.30;;